Flight Track Log - Related Links

Times and Time Zones

All times are in EDT time to prevent confusion due to time zone crossing. See the 9V-SFQ flight status page for this flight to view local times or setup timezone preferences in your user account.

Time Position Orientation Groundspeed Altitude Reporting Facility
EDT Latitude Longitude Course Direction KTS MPH feet Rate Location/Type
Tue 08:31:15 AM 35.7541 140.3532 248° West  Level Estimated
Tue 08:32:15 AM 35.7113 140.2206 248° West  Level Estimated
Tue 08:33:15 AM 35.6684 140.0881 248° West  Level Estimated
Tue 08:34:15 AM 35.6254 139.9558 248° West  Level Estimated
Tue 08:35:15 AM 35.5822 139.8236 248° West  Level Estimated
Tue 08:36:15 AM 35.5389 139.6916 248° West  Level Estimated
Tue 08:37:15 AM 35.4954 139.5597 248° West  Level Estimated
Tue 08:38:15 AM 35.4518 139.4279 248° West  Level Estimated
Tue 08:39:15 AM 35.4081 139.2963 248° West  Level Estimated
Tue 08:40:15 AM 35.3642 139.1648 248° West  Level Estimated
Tue 08:41:15 AM 35.3201 139.0335 248° West  Level Estimated
Tue 08:42:15 AM 35.2760 138.9023 248° West  Level Estimated
Tue 08:43:15 AM 35.2317 138.7713 247° West  Level Estimated
Tue 08:44:15 AM 35.1872 138.6404 247° West  Level Estimated
Tue 08:45:15 AM 35.1426 138.5097 247° West  Level Estimated
Tue 08:46:15 AM 35.0979 138.3791 247° West  Level Estimated
Tue 08:47:15 AM 35.0530 138.2486 247° West  Level Estimated
Tue 08:48:15 AM 35.0079 138.1183 247° West  Level Estimated
Tue 08:49:15 AM 34.9628 137.9881 247° West  Level Estimated
Tue 08:50:15 AM 34.9175 137.8581 247° West  Level Estimated
Tue 08:51:15 AM 34.8721 137.7282 247° West  Level Estimated
Tue 08:52:15 AM 34.8265 137.5984 247° West  Level Estimated
Tue 08:53:15 AM 34.7808 137.4689 247° West  Level Estimated
Tue 08:54:15 AM 34.7349 137.3394 247° West  Level Estimated
Tue 08:55:15 AM 34.6889 137.2101 247° West  Level Estimated
Tue 08:56:15 AM 34.6428 137.0809 246° West  Level Estimated
Tue 08:57:15 AM 34.5965 136.9519 246° West  Level Estimated
Tue 08:58:15 AM 34.5502 136.8230 246° West  Level Estimated
Tue 08:59:15 AM 34.5036 136.6943 246° West  Level Estimated
Tue 09:00:15 AM 34.4570 136.5657 246° West  Level Estimated
Tue 09:01:15 AM 34.4101 136.4372 246° West  Level Estimated
Tue 09:02:15 AM 34.3632 136.3089 246° West  Level Estimated
Tue 09:03:15 AM 34.3161 136.1807 246° West  Level Estimated
Tue 09:04:15 AM 34.2689 136.0527 246° West  Level Estimated
Tue 09:05:15 AM 34.2216 135.9248 246° West  Level Estimated
Tue 09:06:15 AM 34.1741 135.7971 246° West  Level Estimated
Tue 09:07:15 AM 34.1265 135.6695 246° West  Level Estimated
Tue 09:08:15 AM 34.0788 135.5421 246° West  Level Estimated
Tue 09:09:15 AM 34.0309 135.4147 246° West  Level Estimated
Tue 09:10:15 AM 33.9830 135.2876 245° Southwest  Level Estimated
Tue 09:11:15 AM 33.9348 135.1606 245° Southwest  Level Estimated
Tue 09:12:15 AM 33.8866 135.0337 245° Southwest  Level Estimated
Tue 09:13:15 AM 33.8382 134.9070 245° Southwest  Level Estimated
Tue 09:14:15 AM 33.7897 134.7804 245° Southwest  Level Estimated
Tue 09:15:15 AM 33.7411 134.6540 245° Southwest  Level Estimated
Tue 09:16:15 AM 33.6923 134.5277 245° Southwest  Level Estimated
Tue 09:17:15 AM 33.6434 134.4015 245° Southwest  Level Estimated
Tue 09:18:15 AM 33.5944 134.2755 245° Southwest  Level Estimated
Tue 09:19:15 AM 33.5452 134.1496 245° Southwest  Level Estimated
Tue 09:20:15 AM 33.4959 134.0239 245° Southwest  Level Estimated
Tue 09:21:15 AM 33.4465 133.8983 245° Southwest  Level Estimated
Tue 09:22:15 AM 33.3970 133.7729 245° Southwest  Level Estimated
Tue 09:23:15 AM 33.3473 133.6476 245° Southwest  Level Estimated
Tue 09:24:15 AM 33.2975 133.5224 245° Southwest  Level Estimated
Tue 09:25:15 AM 33.2476 133.3974 244° Southwest  Level Estimated
Tue 09:26:15 AM 33.1976 133.2726 244° Southwest  Level Estimated
Tue 09:27:15 AM 33.1474 133.1478 244° Southwest  Level Estimated
Tue 09:28:15 AM 33.0971 133.0233 244° Southwest  Level Estimated
Tue 09:29:15 AM 33.0467 132.8988 244° Southwest  Level Estimated
Tue 09:30:15 AM 32.9962 132.7745 244° Southwest  Level Estimated
Tue 09:31:15 AM 32.9455 132.6504 244° Southwest  Level Estimated
Tue 09:32:15 AM 32.8948 132.5264 244° Southwest  Level Estimated
Tue 09:33:15 AM 32.8439 132.4025 244° Southwest  Level Estimated
Tue 09:34:15 AM 32.7928 132.2788 244° Southwest  Level Estimated
Tue 09:35:15 AM 32.7417 132.1552 244° Southwest  Level Estimated
Tue 09:36:15 AM 32.6904 132.0317 244° Southwest  Level Estimated
Tue 09:37:15 AM 32.6390 131.9084 244° Southwest  Level Estimated
Tue 09:38:15 AM 32.5875 131.7853 244° Southwest  Level Estimated
Tue 09:39:15 AM 32.5359 131.6623 243° Southwest  Level Estimated
Tue 09:40:15 AM 32.4842 131.5394 243° Southwest  Level Estimated
Tue 09:41:15 AM 32.4323 131.4167 243° Southwest  Level Estimated
Tue 09:42:15 AM 32.3803 131.2941 243° Southwest  Level Estimated
Tue 09:43:15 AM 32.3282 131.1716 243° Southwest  Level Estimated
Tue 09:44:15 AM 32.2760 131.0493 243° Southwest  Level Estimated
Tue 09:45:15 AM 32.2237 130.9272 243° Southwest  Level Estimated
Tue 09:46:15 AM 32.1712 130.8051 243° Southwest  Level Estimated
Tue 09:47:15 AM 32.1186 130.6832 243° Southwest  Level Estimated
Tue 09:48:15 AM 32.0659 130.5615 243° Southwest  Level Estimated
Tue 09:49:15 AM 32.0131 130.4399 243° Southwest  Level Estimated
Tue 09:50:15 AM 31.9602 130.3184 243° Southwest  Level Estimated
Tue 09:51:15 AM 31.9072 130.1971 243° Southwest  Level Estimated
Tue 09:52:15 AM 31.8540 130.0759 243° Southwest  Level Estimated
Tue 09:53:15 AM 31.8008 129.9549 243° Southwest  Level Estimated
Tue 09:54:15 AM 31.7474 129.8340 243° Southwest  Level Estimated
Tue 09:55:15 AM 31.6939 129.7132 242° Southwest  Level Estimated
Tue 09:56:15 AM 31.6403 129.5926 242° Southwest  Level Estimated
Tue 09:57:15 AM 31.5865 129.4721 242° Southwest  Level Estimated
Tue 09:58:15 AM 31.5327 129.3517 242° Southwest  Level Estimated
Tue 09:59:15 AM 31.4788 129.2315 242° Southwest  Level Estimated
Tue 10:00:15 AM 31.4247 129.1115 242° Southwest  Level Estimated
Tue 10:01:15 AM 31.3705 128.9915 242° Southwest  Level Estimated
Tue 10:02:15 AM 31.3162 128.8717 242° Southwest  Level Estimated
Tue 10:03:15 AM 31.2619 128.7521 242° Southwest  Level Estimated
Tue 10:04:15 AM 31.2073 128.6326 242° Southwest  Level Estimated
Tue 10:05:15 AM 31.1527 128.5132 242° Southwest  Level Estimated
Tue 10:06:15 AM 31.0980 128.3939 242° Southwest  Level Estimated
Tue 10:07:15 AM 31.0431 128.2748 242° Southwest  Level Estimated
Tue 10:08:15 AM 30.9882 128.1558 242° Southwest  Level Estimated
Tue 10:09:15 AM 30.9332 128.0370 242° Southwest  Level Estimated
Tue 10:10:15 AM 30.8780 127.9183 242° Southwest  Level Estimated
Tue 10:11:15 AM 30.8227 127.7998 241° Southwest  Level Estimated
Tue 10:12:15 AM 30.7673 127.6813 241° Southwest  Level Estimated
Tue 10:13:15 AM 30.7119 127.5630 241° Southwest  Level Estimated
Tue 10:14:15 AM 30.6563 127.4449 241° Southwest  Level Estimated
Tue 10:15:15 AM 30.6006 127.3269 241° Southwest  Level Estimated
Tue 10:16:15 AM 30.5448 127.2090 241° Southwest  Level Estimated
Tue 10:17:15 AM 30.4888 127.0913 241° Southwest  Level Estimated
Tue 10:18:15 AM 30.4328 126.9737 241° Southwest  Level Estimated
Tue 10:19:15 AM 30.3767 126.8562 241° Southwest  Level Estimated
Tue 10:20:15 AM 30.3205 126.7389 241° Southwest  Level Estimated
Tue 10:21:15 AM 30.2642 126.6217 241° Southwest  Level Estimated
Tue 10:22:15 AM 30.2077 126.5046 241° Southwest  Level Estimated
Tue 10:23:15 AM 30.1512 126.3877 241° Southwest  Level Estimated
Tue 10:24:15 AM 30.0945 126.2709 241° Southwest  Level Estimated
Tue 10:25:15 AM 30.0378 126.1542 241° Southwest  Level Estimated
Tue 10:26:15 AM 29.9809 126.0377 241° Southwest  Level Estimated
Tue 10:27:15 AM 29.9240 125.9213 241° Southwest  Level Estimated
Tue 10:28:15 AM 29.8669 125.8050 240° Southwest  Level Estimated
Tue 10:29:15 AM 29.8098 125.6889 240° Southwest  Level Estimated
Tue 10:30:15 AM 29.7525 125.5729 240° Southwest  Level Estimated
Tue 10:31:15 AM 29.6952 125.4570 240° Southwest  Level Estimated
Tue 10:32:15 AM 29.6377 125.3413 240° Southwest  Level Estimated
Tue 10:33:15 AM 29.5801 125.2257 240° Southwest  Level Estimated
Tue 10:34:15 AM 29.5225 125.1102 240° Southwest  Level Estimated
Tue 10:35:15 AM 29.4647 124.9949 240° Southwest  Level Estimated
Tue 10:36:15 AM 29.4069 124.8796 240° Southwest  Level Estimated
Tue 10:37:15 AM 29.3489 124.7646 240° Southwest  Level Estimated
Tue 10:38:15 AM 29.2908 124.6496 240° Southwest  Level Estimated
Tue 10:39:15 AM 29.2327 124.5348 240° Southwest  Level Estimated
Tue 10:40:15 AM 29.1744 124.4201 240° Southwest  Level Estimated
Tue 10:41:15 AM 29.1161 124.3056 240° Southwest  Level Estimated
Tue 10:42:15 AM 29.0576 124.1911 240° Southwest  Level Estimated
Tue 10:43:15 AM 28.9991 124.0768 240° Southwest  Level Estimated
Tue 10:44:15 AM 28.9405 123.9627 240° Southwest  Level Estimated
Tue 10:45:15 AM 28.8817 123.8486 240° Southwest  Level Estimated
Tue 10:46:15 AM 28.8229 123.7347 239° Southwest  Level Estimated
Tue 10:47:15 AM 28.7640 123.6210 239° Southwest  Level Estimated
Tue 10:48:15 AM 28.7049 123.5073 239° Southwest  Level Estimated
Tue 10:49:15 AM 28.6458 123.3938 239° Southwest  Level Estimated
Tue 10:50:15 AM 28.5866 123.2804 239° Southwest  Level Estimated
Tue 10:51:15 AM 28.5273 123.1671 239° Southwest  Level Estimated
Tue 10:52:15 AM 28.4679 123.0540 239° Southwest  Level Estimated
Tue 10:53:15 AM 28.4084 122.9410 239° Southwest  Level Estimated
Tue 10:54:15 AM 28.3488 122.8281 239° Southwest  Level Estimated
Tue 10:55:15 AM 28.2891 122.7153 239° Southwest  Level Estimated
Tue 10:56:15 AM 28.2293 122.6027 239° Southwest  Level Estimated
Tue 10:57:15 AM 28.1695 122.4902 239° Southwest  Level Estimated
Tue 10:58:15 AM 28.1095 122.3778 239° Southwest  Level Estimated
Tue 10:59:15 AM 28.0495 122.2656 239° Southwest  Level Estimated
Tue 11:00:15 AM 27.9893 122.1535 239° Southwest  Level Estimated
Tue 11:01:15 AM 27.9291 122.0415 239° Southwest  Level Estimated
Tue 11:02:15 AM 27.8688 121.9296 239° Southwest  Level Estimated
Tue 11:03:15 AM 27.8084 121.8178 239° Southwest  Level Estimated
Tue 11:04:15 AM 27.7479 121.7062 238° Southwest  Level Estimated
Tue 11:05:15 AM 27.6873 121.5947 238° Southwest  Level Estimated
Tue 11:06:15 AM 27.6266 121.4833 238° Southwest  Level Estimated
Tue 11:07:15 AM 27.5658 121.3721 238° Southwest  Level Estimated
Tue 11:08:15 AM 27.5050 121.2609 238° Southwest  Level Estimated
Tue 11:09:15 AM 27.4440 121.1499 238° Southwest  Level Estimated
Tue 11:10:15 AM 27.3830 121.0390 238° Southwest  Level Estimated
Tue 11:11:15 AM 27.3219 120.9283 238° Southwest  Level Estimated
Tue 11:12:15 AM 27.2607 120.8176 238° Southwest  Level Estimated
Tue 11:13:15 AM 27.1994 120.7071 238° Southwest  Level Estimated
Tue 11:14:15 AM 27.1380 120.5967 238° Southwest  Level Estimated
Tue 11:15:15 AM 27.0765 120.4864 238° Southwest  Level Estimated
Tue 11:16:15 AM 27.0150 120.3763 238° Southwest  Level Estimated
Tue 11:17:15 AM 26.9533 120.2663 238° Southwest  Level Estimated
Tue 11:18:15 AM 26.8916 120.1563 238° Southwest  Level Estimated
Tue 11:19:15 AM 26.8298 120.0465 238° Southwest  Level Estimated
Tue 11:20:15 AM 26.7679 119.9369 238° Southwest  Level Estimated
Tue 11:21:15 AM 26.7059 119.8273 238° Southwest  Level Estimated
Tue 11:22:15 AM 26.6439 119.7179 238° Southwest  Level Estimated
Tue 11:23:15 AM 26.5817 119.6085 238° Southwest  Level Estimated
Tue 11:24:15 AM 26.5195 119.4993 237° Southwest  Level Estimated
Tue 11:25:15 AM 26.4572 119.3903 237° Southwest  Level Estimated
Tue 11:26:15 AM 26.3948 119.2813 237° Southwest  Level Estimated
Tue 11:27:15 AM 26.3323 119.1724 237° Southwest  Level Estimated
Tue 11:28:15 AM 26.2697 119.0637 237° Southwest  Level Estimated
Tue 11:29:15 AM 26.2071 118.9551 237° Southwest  Level Estimated
Tue 11:30:15 AM 26.1444 118.8466 237° Southwest  Level Estimated
Tue 11:31:15 AM 26.0816 118.7382 237° Southwest  Level Estimated
Tue 11:32:15 AM 26.0187 118.6300 237° Southwest  Level Estimated
Tue 11:33:15 AM 25.9557 118.5218 237° Southwest  Level Estimated
Tue 11:34:15 AM 25.8927 118.4138 237° Southwest  Level Estimated
Tue 11:35:15 AM 25.8295 118.3059 237° Southwest  Level Estimated
Tue 11:36:15 AM 25.7663 118.1981 237° Southwest  Level Estimated
Tue 11:37:15 AM 25.7030 118.0904 237° Southwest  Level Estimated
Tue 11:38:15 AM 25.6397 117.9828 237° Southwest  Level Estimated
Tue 11:39:15 AM 25.5762 117.8754 237° Southwest  Level Estimated
Tue 11:40:15 AM 25.5127 117.7680 237° Southwest  Level Estimated
Tue 11:41:15 AM 25.4491 117.6608 237° Southwest  Level Estimated
Tue 11:42:15 AM 25.3854 117.5537 237° Southwest  Level Estimated
Tue 11:43:15 AM 25.3217 117.4467 237° Southwest  Level Estimated
Tue 11:44:15 AM 25.2578 117.3398 237° Southwest  Level Estimated
Tue 11:45:15 AM 25.1939 117.2330 236° Southwest  Level Estimated
Tue 11:46:15 AM 25.1299 117.1264 236° Southwest  Level Estimated
Tue 11:47:15 AM 25.0659 117.0198 236° Southwest  Level Estimated
Tue 11:48:15 AM 25.0017 116.9134 236° Southwest  Level Estimated
Tue 11:49:15 AM 24.9375 116.8070 236° Southwest  Level Estimated
Tue 11:50:15 AM 24.8732 116.7008 236° Southwest  Level Estimated
Tue 11:51:15 AM 24.8089 116.5947 236° Southwest  Level Estimated
Tue 11:52:15 AM 24.7444 116.4887 236° Southwest  Level Estimated
Tue 11:53:15 AM 24.6799 116.3828 236° Southwest  Level Estimated
Tue 11:54:15 AM 24.6153 116.2770 236° Southwest  Level Estimated
Tue 11:55:15 AM 24.5507 116.1714 236° Southwest  Level Estimated
Tue 11:56:15 AM 24.4860 116.0658 236° Southwest  Level Estimated
Tue 11:57:15 AM 24.4211 115.9604 236° Southwest  Level Estimated
Tue 11:58:15 AM 24.3563 115.8550 236° Southwest  Level Estimated
Tue 11:59:15 AM 24.2913 115.7498 236° Southwest  Level Estimated
Tue 12:00:15 PM 24.2263 115.6447 236° Southwest  Level Estimated
Tue 12:01:15 PM 24.1612 115.5396 236° Southwest  Level Estimated
Tue 12:02:15 PM 24.0960 115.4347 236° Southwest  Level Estimated
Tue 12:03:15 PM 24.0308 115.3299 236° Southwest  Level Estimated
Tue 12:04:15 PM 23.9655 115.2252 236° Southwest  Level Estimated
Tue 12:05:15 PM 23.9001 115.1206 236° Southwest  Level Estimated
Tue 12:06:15 PM 23.8346 115.0161 236° Southwest  Level Estimated
Tue 12:07:15 PM 23.7691 114.9117 236° Southwest  Level Estimated
Tue 12:08:15 PM 23.7035 114.8074 235° Southwest  Level Estimated
Tue 12:09:15 PM 23.6378 114.7033 235° Southwest  Level Estimated
Tue 12:10:15 PM 23.5721 114.5992 235° Southwest  Level Estimated
Tue 12:11:15 PM 23.5063 114.4952 235° Southwest  Level Estimated
Tue 12:12:15 PM 23.4405 114.3914 235° Southwest  Level Estimated
Tue 12:13:15 PM 23.3745 114.2876 235° Southwest  Level Estimated
Tue 12:14:15 PM 23.3085 114.1840 235° Southwest  Level Estimated
Tue 12:15:15 PM 23.2424 114.0804 235° Southwest  Level Estimated
Tue 12:16:15 PM 23.1763 113.9770 235° Southwest  Level Estimated
Tue 12:17:15 PM 23.1101 113.8736 235° Southwest  Level Estimated
Tue 12:18:15 PM 23.0438 113.7704 235° Southwest  Level Estimated
Tue 12:19:15 PM 22.9774 113.6672 235° Southwest  Level Estimated
Tue 12:20:15 PM 22.9110 113.5642 235° Southwest  Level Estimated
Tue 12:21:15 PM 22.8445 113.4613 235° Southwest  Level Estimated
Tue 12:22:15 PM 22.7780 113.3584 235° Southwest  Level Estimated
Tue 12:23:15 PM 22.7114 113.2557 235° Southwest  Level Estimated
Tue 12:24:15 PM 22.6447 113.1530 235° Southwest  Level Estimated
Tue 12:25:15 PM 22.5780 113.0505 235° Southwest  Level Estimated
Tue 12:26:15 PM 22.5112 112.9481 235° Southwest  Level Estimated
Tue 12:27:15 PM 22.4443 112.8457 235° Southwest  Level Estimated
Tue 12:28:15 PM 22.3773 112.7435 235° Southwest  Level Estimated
Tue 12:29:15 PM 22.3104 112.6413 235° Southwest  Level Estimated
Tue 12:30:15 PM 22.2433 112.5393 235° Southwest  Level Estimated
Tue 12:31:15 PM 22.1762 112.4373 235° Southwest  Level Estimated
Tue 12:32:15 PM 22.1090 112.3355 235° Southwest  Level Estimated
Tue 12:33:15 PM 22.0417 112.2337 234° Southwest  Level Estimated
Tue 12:34:15 PM 21.9744 112.1321 234° Southwest  Level Estimated
Tue 12:35:15 PM 21.9070 112.0305 234° Southwest  Level Estimated
Tue 12:36:15 PM 21.8396 111.9290 234° Southwest  Level Estimated
Tue 12:37:15 PM 21.7721 111.8277 234° Southwest  Level Estimated
Tue 12:38:15 PM 21.7045 111.7264 234° Southwest  Level Estimated
Tue 12:39:15 PM 21.6369 111.6252 234° Southwest  Level Estimated
Tue 12:40:15 PM 21.5692 111.5241 234° Southwest  Level Estimated
Tue 12:41:15 PM 21.5014 111.4232 234° Southwest  Level Estimated
Tue 12:42:15 PM 21.4336 111.3223 234° Southwest  Level Estimated
Tue 12:43:15 PM 21.3658 111.2215 234° Southwest  Level Estimated
Tue 12:44:15 PM 21.2978 111.1208 234° Southwest  Level Estimated
Tue 12:45:15 PM 21.2298 111.0201 234° Southwest  Level Estimated
Tue 12:46:15 PM 21.1618 110.9196 234° Southwest  Level Estimated
Tue 12:47:15 PM 21.0937 110.8192 234° Southwest  Level Estimated
Tue 12:48:15 PM 21.0255 110.7188 234° Southwest  Level Estimated
Tue 12:49:15 PM 20.9573 110.6186 234° Southwest  Level Estimated
Tue 12:50:15 PM 20.8890 110.5184 234° Southwest  Level Estimated
Tue 12:51:15 PM 20.8207 110.4184 234° Southwest  Level Estimated
Tue 12:52:15 PM 20.7523 110.3184 234° Southwest  Level Estimated
Tue 12:53:15 PM 20.6838 110.2185 234° Southwest  Level Estimated
Tue 12:54:15 PM 20.6153 110.1187 234° Southwest  Level Estimated
Tue 12:55:15 PM 20.5467 110.0190 234° Southwest  Level Estimated
Tue 12:56:15 PM 20.4781 109.9194 234° Southwest  Level Estimated
Tue 12:57:15 PM 20.4094 109.8199 234° Southwest  Level Estimated
Tue 12:58:15 PM 20.3406 109.7205 234° Southwest  Level Estimated
Tue 12:59:15 PM 20.2718 109.6211 234° Southwest  Level Estimated
Tue 01:00:15 PM 20.2030 109.5219 234° Southwest  Level Estimated
Tue 01:01:15 PM 20.1341 109.4227 233° Southwest  Level Estimated
Tue 01:02:15 PM 20.0651 109.3236 233° Southwest  Level Estimated
Tue 01:03:15 PM 19.9961 109.2246 233° Southwest  Level Estimated
Tue 01:04:15 PM 19.9270 109.1257 233° Southwest  Level Estimated
Tue 01:05:15 PM 19.8579 109.0269 233° Southwest  Level Estimated
Tue 01:06:15 PM 19.7887 108.9281 233° Southwest  Level Estimated
Tue 01:07:15 PM 19.7194 108.8295 233° Southwest  Level Estimated
Tue 01:08:15 PM 19.6502 108.7309 233° Southwest  Level Estimated
Tue 01:09:15 PM 19.5808 108.6324 233° Southwest  Level Estimated
Tue 01:10:15 PM 19.5114 108.5340 233° Southwest  Level Estimated
Tue 01:11:15 PM 19.4419 108.4357 233° Southwest  Level Estimated
Tue 01:12:15 PM 19.3724 108.3375 233° Southwest  Level Estimated
Tue 01:13:15 PM 19.3029 108.2394 233° Southwest  Level Estimated
Tue 01:14:15 PM 19.2333 108.1413 233° Southwest  Level Estimated
Tue 01:15:15 PM 19.1636 108.0433 233° Southwest  Level Estimated
Tue 01:16:15 PM 19.0939 107.9454 233° Southwest  Level Estimated
Tue 01:17:15 PM 19.0241 107.8476 233° Southwest  Level Estimated
Tue 01:18:15 PM 18.9543 107.7499 233° Southwest  Level Estimated
Tue 01:19:15 PM 18.8844 107.6523 233° Southwest  Level Estimated
Tue 01:20:15 PM 18.8145 107.5547 233° Southwest  Level Estimated
Tue 01:21:15 PM 18.7445 107.4572 233° Southwest  Level Estimated
Tue 01:22:15 PM 18.6745 107.3598 233° Southwest  Level Estimated
Tue 01:23:15 PM 18.6044 107.2625 233° Southwest  Level Estimated
Tue 01:24:15 PM 18.5343 107.1652 233° Southwest  Level Estimated
Tue 01:25:15 PM 18.4641 107.0681 233° Southwest  Level Estimated
Tue 01:26:15 PM 18.3939 106.9710 233° Southwest  Level Estimated
Tue 01:27:15 PM 18.3237 106.8740 233° Southwest  Level Estimated
Tue 01:28:15 PM 18.2533 106.7771 233° Southwest  Level Estimated
Tue 01:29:15 PM 18.1830 106.6802 233° Southwest  Level Estimated
Tue 01:30:15 PM 18.1125 106.5835 233° Southwest  Level Estimated
Tue 01:31:15 PM 18.0421 106.4868 233° Southwest  Level Estimated
Tue 01:32:15 PM 17.9716 106.3902 232° Southwest  Level Estimated
Tue 01:33:15 PM 17.9010 106.2936 232° Southwest  Level Estimated
Tue 01:34:15 PM 17.8304 106.1972 232° Southwest  Level Estimated
Tue 01:35:15 PM 17.7597 106.1008 232° Southwest  Level Estimated
Tue 01:36:15 PM 17.6890 106.0045 232° Southwest  Level Estimated
Tue 01:37:15 PM 17.6183 105.9082 232° Southwest  Level Estimated
Tue 01:38:15 PM 17.5475 105.8121 232° Southwest  Level Estimated
Tue 01:39:15 PM 17.4766 105.7160 232° Southwest  Level Estimated
Tue 01:40:15 PM 17.4057 105.6200 232° Southwest  Level Estimated
Tue 01:41:15 PM 17.3348 105.5241 232° Southwest  Level Estimated
Tue 01:42:15 PM 17.2638 105.4282 232° Southwest  Level Estimated
Tue 01:43:15 PM 17.1928 105.3324 232° Southwest  Level Estimated
Tue 01:44:15 PM 17.1217 105.2367 232° Southwest  Level Estimated
Tue 01:45:15 PM 17.0506 105.1411 232° Southwest  Level Estimated
Tue 01:46:15 PM 16.9794 105.0455 232° Southwest  Level Estimated
Tue 01:47:15 PM 16.9082 104.9500 232° Southwest  Level Estimated
Tue 01:48:15 PM 16.8370 104.8546 232° Southwest  Level Estimated
Tue 01:49:15 PM 16.7657 104.7592 232° Southwest  Level Estimated
Tue 01:50:15 PM 16.6943 104.6640 232° Southwest  Level Estimated
Tue 01:51:15 PM 16.6230 104.5688 232° Southwest  Level Estimated
Tue 01:52:15 PM 16.5515 104.4736 232° Southwest  Level Estimated
Tue 01:53:15 PM 16.4801 104.3786 232° Southwest  Level Estimated
Tue 01:54:15 PM 16.4086 104.2836 232° Southwest  Level Estimated
Tue 01:55:15 PM 16.3370 104.1887 232° Southwest  Level Estimated
Tue 01:56:15 PM 16.2654 104.0938 232° Southwest  Level Estimated
Tue 01:57:15 PM 16.1938 103.9990 232° Southwest  Level Estimated
Tue 01:58:15 PM 16.1221 103.9043 232° Southwest  Level Estimated
Tue 01:59:15 PM 16.0504 103.8097 232° Southwest  Level Estimated
Tue 02:00:15 PM 15.9786 103.7151 232° Southwest  Level Estimated
Tue 02:01:15 PM 15.9068 103.6206 232° Southwest  Level Estimated
Tue 02:02:15 PM 15.8350 103.5261 232° Southwest  Level Estimated
Tue 02:03:15 PM 15.7631 103.4317 232° Southwest  Level Estimated
Tue 02:04:15 PM 15.6911 103.3374 232° Southwest  Level Estimated
Tue 02:05:15 PM 15.6192 103.2432 232° Southwest  Level Estimated
Tue 02:06:15 PM 15.5472 103.1490 232° Southwest  Level Estimated
Tue 02:07:15 PM 15.4751 103.0549 232° Southwest  Level Estimated
Tue 02:08:15 PM 15.4030 102.9609 231° Southwest  Level Estimated
Tue 02:09:15 PM 15.3309 102.8669 231° Southwest  Level Estimated
Tue 02:10:15 PM 15.2587 102.7729 231° Southwest  Level Estimated
Tue 02:11:15 PM 15.1865 102.6791 231° Southwest  Level Estimated
Tue 02:12:15 PM 15.1143 102.5853 231° Southwest  Level Estimated
Tue 02:13:15 PM 15.0420 102.4916 231° Southwest  Level Estimated
Tue 02:14:15 PM 14.9697 102.3979 231° Southwest  Level Estimated
Tue 02:15:15 PM 14.8973 102.3043 231° Southwest  Level Estimated
Tue 02:16:15 PM 14.8249 102.2108 231° Southwest  Level Estimated
Tue 02:17:15 PM 14.7525 102.1173 231° Southwest  Level Estimated
Tue 02:18:15 PM 14.6800 102.0239 231° Southwest  Level Estimated
Tue 02:19:15 PM 14.6075 101.9306 231° Southwest  Level Estimated
Tue 02:20:15 PM 14.5350 101.8373 231° Southwest  Level Estimated
Tue 02:21:15 PM 14.4624 101.7440 231° Southwest  Level Estimated
Tue 02:22:15 PM 14.3897 101.6509 231° Southwest  Level Estimated
Tue 02:23:15 PM 14.3171 101.5578 231° Southwest  Level Estimated
Tue 02:24:15 PM 14.2444 101.4647 231° Southwest  Level Estimated
Tue 02:25:15 PM 14.1717 101.3717 231° Southwest  Level Estimated
Tue 02:26:15 PM 14.0989 101.2788 231° Southwest  Level Estimated
Tue 02:27:15 PM 14.0261 101.1860 231° Southwest  Level Estimated
Tue 02:28:15 PM 13.9533 101.0932 231° Southwest  Level Estimated
Tue 02:29:15 PM 13.8804 101.0004 231° Southwest  Level Estimated
Tue 02:30:15 PM 13.8075 100.9077 231° Southwest  Level Estimated
Tue 02:31:15 PM 13.7346 100.8151 231° Southwest  Level Estimated
Tue 02:32:15 PM 13.6616 100.7225 51° Northeast  Level Estimated
Tue 02:33:15 PM 13.7346 100.8151 231° Southwest  Level Estimated
Tue 02:34:15 PM 13.6616 100.7225 51° Northeast  Level Estimated
Tue 02:35:15 PM 13.7346 100.8151 231° Southwest  Level Estimated
Tue 02:36:15 PM 13.6616 100.7225 51° Northeast  Level Estimated
Tue 02:37:15 PM 13.7346 100.8151 231° Southwest  Level Estimated
Tue 02:38:15 PM 13.6616 100.7225 51° Northeast  Level Estimated
Tue 02:39:15 PM 13.7346 100.8151 231° Southwest  Level Estimated
Tue 02:40:15 PM 13.6616 100.7225 51° Northeast  Level Estimated
Tue 02:41:15 PM 13.7346 100.8151 231° Southwest  Level Estimated
Tue 02:42:15 PM 13.6616 100.7225 51° Northeast  Level Estimated
Tue 02:43:15 PM 13.7346 100.8151 231° Southwest  Level Estimated
Tue 02:44:15 PM 13.6616 100.7225 51° Northeast  Level Estimated
Tue 02:45:15 PM 13.7346 100.8151 51° Northeast  Level Estimated

Login

Don't have an account? Register now (free) for customized features, flight alerts, and more!